Flight Track Log - Related Links

Times and Time Zones

All times are in EDT time to prevent confusion due to time zone crossing. See the SWA1999 flight status page for this flight to view local times or setup timezone preferences in your user account.

Time Position Orientation Groundspeed Altitude Reporting Facility
EDT Latitude Longitude Course Direction KTS MPH feet Rate Location/Type
Fri 10:36:51 PM 36.1000 -86.6833 238° Southwest 144 166 1,200  Level Nashville TRACON
Fri 10:37:33 PM 36.0833 -86.7167 238° Southwest 167 192 2,800 2,541 Climbing Nashville TRACON
Fri 10:38:16 PM 36.0900 -86.7719 279° West 193 222 4,800 3,173 Climbing Memphis Center
Fri 10:39:17 PM 36.0914 -86.8567 271° West 238 274 8,300 3,393 Climbing Memphis Center
Fri 10:40:18 PM 36.0939 -86.9458 272° West 250 288 11,700 3,000 Climbing Memphis Center
Fri 10:41:19 PM 36.0967 -87.0578 272° West 310 357 14,400 2,656 Climbing Memphis Center
Fri 10:42:20 PM 36.0981 -87.1575 271° West 333 383 17,100 2,976 Climbing Memphis Center
Fri 10:43:22 PM 36.0833 -87.3006 263° West 359 413 20,500 3,098 Climbing Memphis Center
Fri 10:44:22 PM 36.0567 -87.4261 255° West 369 425 23,400 2,479 Climbing Memphis Center
Fri 10:45:23 PM 36.0322 -87.5556 257° West 378 435 25,500 2,016 Climbing Memphis Center
Fri 10:46:24 PM 35.9856 -87.6800 245° Southwest 394 453 27,500 2,016 Climbing Memphis Center
Fri 10:47:25 PM 35.9244 -87.8025 238° Southwest 410 472 29,600 2,262 Climbing Memphis Center
Fri 10:48:26 PM 35.8678 -87.9225 240° Southwest 406 467 32,100 2,557 Climbing Memphis Center
Fri 10:49:27 PM 35.8114 -88.0392 239° Southwest 399 459 34,800 2,508 Climbing Memphis Center
Fri 10:50:28 PM 35.7572 -88.1506 239° Southwest 372 428 37,200 1,869 Climbing Memphis Center
Fri 10:51:29 PM 35.7067 -88.2547 239° Southwest 360 414 38,600 1,289 Climbing Memphis Center
Fri 10:52:29 PM 35.6569 -88.3567 239° Southwest 352 405 39,800 694 Climbing Memphis Center
Fri 10:53:30 PM 35.6056 -88.4608 239° Southwest 352 405 40,000 98 Climbing Memphis Center
Fri 10:54:31 PM 35.5550 -88.5639 239° Southwest 352 405 40,000  Level Memphis Center
Fri 10:55:32 PM 35.5042 -88.6678 239° Southwest 352 405 40,000  Level Memphis Center
Fri 10:56:33 PM 35.4522 -88.7728 239° Southwest 353 406 40,000  Level Memphis Center
Fri 10:57:34 PM 35.4008 -88.8742 238° Southwest 356 410 40,000  Level Memphis Center
Fri 10:58:35 PM 35.3489 -88.9781 239° Southwest 356 410 40,000  Level Memphis Center
Fri 11:00:00 PM 35.2523 -89.1037 227° Southwest  Level FlightAware Approximate
Fri 11:07:00 PM 34.8795 -89.8268 239° Southwest  Level FlightAware Approximate
Fri 11:08:00 PM 34.8276 -89.9302 239° Southwest  Level FlightAware Approximate
Fri 11:09:00 PM 34.7756 -90.0334 238° Southwest  Level FlightAware Approximate
Fri 11:10:00 PM 34.7235 -90.1364 238° Southwest  Level FlightAware Approximate
Fri 11:11:00 PM 34.6674 -90.2362 235° Southwest  Level FlightAware Approximate
Fri 11:12:00 PM 34.6139 -90.3380 238° Southwest  Level FlightAware Approximate
Fri 11:13:00 PM 34.5617 -90.4409 238° Southwest  Level FlightAware Approximate
Fri 11:14:00 PM 34.5095 -90.5435 238° Southwest  Level FlightAware Approximate
Fri 11:15:00 PM 34.4571 -90.6461 238° Southwest  Level FlightAware Approximate
Fri 11:16:00 PM 34.4047 -90.7486 238° Southwest  Level FlightAware Approximate
Fri 11:17:00 PM 34.3522 -90.8509 238° Southwest  Level FlightAware Approximate
Fri 11:18:00 PM 34.2996 -90.9530 238° Southwest  Level FlightAware Approximate
Fri 11:19:00 PM 34.2470 -91.0551 238° Southwest  Level FlightAware Approximate
Fri 11:20:00 PM 34.1942 -91.1570 238° Southwest  Level FlightAware Approximate
Fri 11:21:00 PM 34.1414 -91.2588 238° Southwest  Level FlightAware Approximate
Fri 11:22:00 PM 34.0885 -91.3605 238° Southwest  Level FlightAware Approximate
Fri 11:23:00 PM 34.0354 -91.4620 238° Southwest  Level FlightAware Approximate
Fri 11:24:00 PM 33.9823 -91.5634 238° Southwest  Level FlightAware Approximate
Fri 11:25:00 PM 33.9292 -91.6647 238° Southwest  Level FlightAware Approximate
Fri 11:26:00 PM 33.8759 -91.7659 238° Southwest  Level FlightAware Approximate
Fri 11:27:00 PM 33.8226 -91.8669 238° Southwest  Level FlightAware Approximate
Fri 11:28:00 PM 33.7692 -91.9678 238° Southwest  Level FlightAware Approximate
Fri 11:29:00 PM 33.7157 -92.0686 237° Southwest  Level FlightAware Approximate
Fri 11:30:00 PM 33.6621 -92.1693 237° Southwest  Level FlightAware Approximate
Fri 11:31:00 PM 33.6084 -92.2698 237° Southwest  Level FlightAware Approximate
Fri 11:32:00 PM 33.5543 -92.3699 237° Southwest  Level FlightAware Approximate
Fri 11:33:00 PM 33.4997 -92.4696 237° Southwest  Level FlightAware Approximate
Fri 11:34:00 PM 33.4451 -92.5692 237° Southwest  Level FlightAware Approximate
Fri 11:35:00 PM 33.3904 -92.6687 237° Southwest  Level FlightAware Approximate
Fri 11:36:00 PM 33.3356 -92.7680 237° Southwest  Level FlightAware Approximate
Fri 11:37:00 PM 33.2808 -92.8673 237° Southwest  Level FlightAware Approximate
Fri 11:38:00 PM 33.2258 -92.9664 236° Southwest  Level FlightAware Approximate
Fri 11:39:00 PM 33.1708 -93.0653 236° Southwest  Level FlightAware Approximate
Fri 11:40:00 PM 33.1157 -93.1642 236° Southwest  Level FlightAware Approximate
Fri 11:41:00 PM 33.0605 -93.2629 236° Southwest  Level FlightAware Approximate
Fri 11:42:00 PM 33.0053 -93.3615 236° Southwest  Level FlightAware Approximate
Fri 11:43:00 PM 32.9499 -93.4600 236° Southwest  Level FlightAware Approximate
Fri 11:44:00 PM 32.8945 -93.5583 236° Southwest  Level FlightAware Approximate
Fri 11:45:00 PM 32.8391 -93.6566 236° Southwest  Level FlightAware Approximate
Fri 11:46:00 PM 32.7878 -93.7579 239° Southwest  Level FlightAware Approximate
Fri 11:47:00 PM 32.7425 -93.8630 245° Southwest  Level FlightAware Approximate
Fri 11:48:00 PM 32.7011 -93.9705 245° Southwest  Level FlightAware Approximate
Fri 11:49:00 PM 32.6613 -94.0787 247° West  Level FlightAware Approximate
Fri 11:50:00 PM 32.6225 -94.1874 247° West  Level FlightAware Approximate
Fri 11:51:00 PM 32.5836 -94.2960 247° West  Level FlightAware Approximate
Fri 11:52:00 PM 32.5446 -94.4045 247° West  Level FlightAware Approximate
Fri 11:53:00 PM 32.5056 -94.5130 247° West  Level FlightAware Approximate
Fri 11:54:00 PM 32.4664 -94.6213 247° West  Level FlightAware Approximate
Fri 11:55:00 PM 32.4268 -94.7294 246° West  Level FlightAware Approximate
Fri 11:56:00 PM 32.3870 -94.8373 246° West  Level FlightAware Approximate
Fri 11:57:00 PM 32.3470 -94.9451 246° West  Level FlightAware Approximate
Fri 11:58:00 PM 32.3069 -95.0528 246° West  Level FlightAware Approximate
Fri 11:59:00 PM 32.2668 -95.1604 246° West  Level FlightAware Approximate
Sat 12:00:00 AM 32.2265 -95.2679 246° West  Level FlightAware Approximate
Sat 12:01:00 AM 32.1862 -95.3753 246° West  Level FlightAware Approximate
Sat 12:02:00 AM 32.1457 -95.4826 246° West  Level FlightAware Approximate
Sat 12:03:00 AM 32.1052 -95.5898 246° West  Level FlightAware Approximate
Sat 12:04:00 AM 32.0646 -95.6969 246° West  Level FlightAware Approximate
Sat 12:05:00 AM 32.0239 -95.8039 246° West  Level FlightAware Approximate
Sat 12:06:00 AM 31.9815 -95.9100 243° Southwest  Level FlightAware Approximate
Sat 12:07:00 AM 31.9367 -96.0146 243° Southwest  Level FlightAware Approximate
Sat 12:08:00 AM 31.8923 -96.1193 245° Southwest  Level FlightAware Approximate
Sat 12:09:00 AM 31.8499 -96.2253 245° Southwest  Level FlightAware Approximate
Sat 12:10:00 AM 31.8089 -96.3319 246° West  Level FlightAware Approximate
Sat 12:11:00 AM 31.7695 -96.4393 248° West  Level FlightAware Approximate
Sat 12:12:00 AM 31.7314 -96.5473 248° West  Level FlightAware Approximate
Sat 12:13:00 AM 31.6933 -96.6552 247° West  Level FlightAware Approximate
Sat 12:14:00 AM 31.6479 -96.7557 246° West  Level FlightAware Approximate
Sat 12:15:00 AM 31.6079 -96.8626 246° West  Level FlightAware Approximate
Sat 12:16:00 AM 31.5678 -96.9694 246° West  Level FlightAware Approximate
Sat 12:17:00 AM 31.5237 -97.0667 180° South  Level FlightAware Approximate
Sat 12:18:00 AM 31.4305 -97.1059 201° Southwest  Level FlightAware Approximate
Sat 12:19:00 AM 31.3378 -97.1480 201° Southwest  Level FlightAware Approximate
Sat 12:20:00 AM 31.2445 -97.1881 200° South  Level FlightAware Approximate
Sat 12:21:00 AM 31.1512 -97.2244 203° Southwest  Level FlightAware Approximate
Sat 12:22:00 AM 31.0571 -97.2619 198° South  Level FlightAware Approximate
Sat 12:23:00 AM 30.9621 -97.2960 196° South  Level FlightAware Approximate
Sat 12:24:00 AM 30.8665 -97.3278 196° South  Level FlightAware Approximate
Sat 12:25:00 AM 30.7844 -97.3706 192° South  Level FlightAware Approximate
Sat 12:26:00 AM 30.6884 -97.4002 198° South  Level FlightAware Approximate
Sat 12:27:00 AM 30.5936 -97.4349 192° South  Level FlightAware Approximate
Sat 12:28:00 AM 30.4981 -97.4657 201° Southwest  Level FlightAware Approximate
Sat 12:29:00 AM 30.4052 -97.5070 201° Southwest  Level FlightAware Approximate
Sat 12:30:00 AM 30.3280 -97.5573 196° South  Level FlightAware Approximate
Sat 12:31:00 AM 30.2410 -97.6109 213° Southwest  Level FlightAware Approximate
Sat 12:32:00 AM 30.1833 -97.6667 221° Southwest  Level FlightAware Approximate
Sat 12:33:00 AM 30.1945 -97.6699 221° Southwest  Level Estimated
Sat 12:34:00 AM 30.1945 -97.6699 221° Southwest  Level Estimated
Sat 12:35:00 AM 30.1945 -97.6699 221° Southwest  Level Estimated
Sat 12:36:00 AM 30.1945 -97.6699 221° Southwest  Level Estimated
Sat 12:37:00 AM 30.1945 -97.6699 221° Southwest  Level Estimated
Sat 12:38:00 AM 30.1945 -97.6699 221° Southwest  Level Estimated
Sat 12:39:00 AM 30.1945 -97.6699 221° Southwest  Level Estimated
Sat 12:40:00 AM 30.1945 -97.6699 221° Southwest  Level Estimated
Sat 12:41:00 AM 30.1945 -97.6699 221° Southwest  Level Estimated
Sat 12:42:00 AM 30.1945 -97.6699 221° Southwest  Level Estimated
Sat 12:43:00 AM 30.1945 -97.6699 221° Southwest  Level Estimated
Sat 12:44:00 AM 30.1945 -97.6699 221° Southwest  Level Estimated
Sat 12:45:00 AM 30.1945 -97.6699 221° Southwest  Level Estimated
Sat 12:46:00 AM 30.1945 -97.6699 221° Southwest  Level Estimated

Login

Don't have an account? Register now (free) for customized features, flight alerts, and more!